Portada
METAR-TAF:

METAR-TAF

Aeroports :

Iakutsk, Rússia

latitud: 62-01N, longitud: 129-43E, altitud: 103 m

Observació

L'informe es va fer fa 17 minuts, a les 07:00 UTC
Vent 6 kt del Nord
Temperatura -33°C
Humitat 74%
Pressió 1008 hPa
Visibilitat: 2400 m
neu, boirina

METAR: UEEE 140700Z 01003MPS 2400 -SN BR NSC M33/M36 Q1008 R23L/450150 NOSIG RMK QFE747

Hora: 16:17 (07:17 UTC)

Pronòstic

L'informe es va fer fa 2 hores i 17 minuts, a les 05:00 UTC
Pronòstic vàlid del 14 a les 06 UTC al 15 a les 12 UTC
Vent 6 kt del Nord/Nord-Est
Visibilitat: 3200 m
Cel cobert a una alçada de 7000 ft
neu, boirina
Temporalment
l' 14 a les 06 UTC al 14 a les 09 UTC
Visibilitat: 0700 m
boira
Temporalment
l' 14 a les 09 UTC al 14 a les 24 UTC
Visibilitat: 1200 m
boirina

TAF: UEEE 140500Z 1406/1512 02003MPS 3200 -SN BR OVC070 TEMPO 1406/1409 0700 FG TEMPO 1409/1424 1200 BR

Observacions i pronòstics meteorològics de més de 4000 aeroports (METAR i TAF).

Les estacions disponibles són els punts grocs i vermells al mapa.

Posi el ratolí al punt desitjat per veure el nom de l'estació.

Feu clic per veure les observacions i els pronòstics meteorològics.

Per canviar el mapa: feu clic els botons verds amb una creu de color negre per apropar; al botó verd amb un guió per allunyar la imatge; o en les fletxes verdes per a mapes adjacents.


METAR-TAF: